Time;durP1;ratioP1;P1;durP2;ratioP2;P2;SDS_P1;SDS_P2;PMS_P1;PMS_P2;Temp;Humidity;BMP_temperature;BMP_pressure;BME280_temperature;BME280_humidity;BME280_pressure;Samples;Min_cycle;Max_cycle;Signal;HPM_P1;HPM_P2
2023/05/10 00:00:13;;;;;;;0.10;0.10;;;14.50;99.90;;;;;;5072943;28;20212;-82
2023/05/10 00:02:40;;;;;;;0.10;0.10;;;14.50;99.90;;;;;;5072471;28;20446;-81
2023/05/10 00:05:06;;;;;;;0.10;0.10;;;14.40;99.90;;;;;;5073770;28;20268;-82
2023/05/10 00:07:32;;;;;;;0.10;0.10;;;14.40;99.90;;;;;;5072566;28;20191;-82
2023/05/10 00:09:57;;;;;;;0.10;0.10;;;14.40;99.90;;;;;;5074748;28;20194;-82
2023/05/10 00:12:23;;;;;;;0.10;0.10;;;14.30;99.90;;;;;;5073349;28;20260;-82
2023/05/10 00:14:49;;;;;;;0.10;0.10;;;14.20;99.90;;;;;;5072799;28;20215;-82
2023/05/10 00:17:15;;;;;;;0.10;0.10;;;14.20;99.90;;;;;;5074374;28;20181;-82
2023/05/10 00:19:40;;;;;;;0.10;0.10;;;14.20;99.90;;;;;;5073894;28;20309;-82
2023/05/10 00:22:06;;;;;;;0.10;0.10;;;14.20;99.90;;;;;;5070981;28;20261;-83
2023/05/10 00:24:31;;;;;;;0.10;0.10;;;14.20;99.90;;;;;;5073493;28;20603;-82
2023/05/10 00:26:57;;;;;;;0.10;0.10;;;14.20;99.90;;;;;;5072361;28;20193;-82
2023/05/10 00:29:22;;;;;;;0.10;0.10;;;14.20;99.90;;;;;;5073326;28;20187;-82
2023/05/10 00:31:48;;;;;;;0.10;0.10;;;14.30;99.90;;;;;;5073424;28;20221;-82
2023/05/10 00:34:14;;;;;;;0.10;0.10;;;14.20;99.90;;;;;;5073314;28;20176;-82
2023/05/10 00:36:39;;;;;;;0.10;0.10;;;14.20;99.90;;;;;;5071563;28;20217;-82
2023/05/10 00:39:05;;;;;;;0.10;0.10;;;14.30;99.90;;;;;;5070854;28;20368;-82
2023/05/10 00:41:33;;;;;;;0.10;0.10;;;14.30;99.90;;;;;;5071974;28;20200;-82
2023/05/10 00:43:59;;;;;;;0.10;0.10;;;14.30;99.90;;;;;;5075933;28;20195;-82
2023/05/10 00:46:25;;;;;;;0.10;0.10;;;14.30;99.90;;;;;;5071860;28;20254;-81
2023/05/10 00:48:51;;;;;;;0.10;0.10;;;14.30;99.90;;;;;;5072486;28;20652;-82
2023/05/10 00:51:17;;;;;;;0.10;0.10;;;14.30;99.90;;;;;;5070581;28;20234;-82
2023/05/10 00:53:45;;;;;;;0.10;0.10;;;14.30;99.90;;;;;;5075121;28;20194;-82
2023/05/10 00:56:12;;;;;;;0.10;0.10;;;14.30;99.90;;;;;;5071237;28;20266;-82
2023/05/10 00:58:38;;;;;;;0.10;0.10;;;14.30;99.90;;;;;;5070776;28;20308;-82
2023/05/10 01:01:04;;;;;;;0.10;0.10;;;14.30;99.90;;;;;;5072489;28;20208;-82
2023/05/10 01:03:31;;;;;;;0.10;0.10;;;14.30;99.90;;;;;;5074526;28;20209;-82
2023/05/10 01:05:57;;;;;;;0.10;0.10;;;14.30;99.90;;;;;;5071797;28;20561;-82
2023/05/10 01:08:23;;;;;;;0.10;0.10;;;14.30;99.90;;;;;;5072983;28;20194;-82
2023/05/10 01:10:49;;;;;;;0.10;0.10;;;14.30;99.90;;;;;;5070592;28;20206;-82
2023/05/10 01:13:26;;;;;;;0.10;0.10;;;14.30;99.90;;;;;;5070822;28;20203;-82
2023/05/10 01:15:52;;;;;;;0.10;0.10;;;14.20;99.90;;;;;;5072077;28;20190;-82
2023/05/10 01:18:21;;;;;;;0.10;0.10;;;14.20;99.90;;;;;;5073442;28;20265;-82
2023/05/10 01:20:54;;;;;;;0.10;0.10;;;14.20;99.90;;;;;;5071655;28;20214;-82
2023/05/10 01:23:38;;;;;;;0.10;0.10;;;14.20;99.90;;;;;;5071992;28;20212;-82
2023/05/10 01:26:22;;;;;;;0.10;0.10;;;14.10;99.90;;;;;;5072269;28;20949;-82
2023/05/10 01:29:13;;;;;;;0.10;0.10;;;14.10;99.90;;;;;;5070067;28;20195;-82
2023/05/10 01:32:16;;;;;;;0.10;0.10;;;14.10;99.90;;;;;;5070409;28;20226;-82
2023/05/10 01:35:06;;;;;;;0.10;0.10;;;14.10;99.90;;;;;;5071116;28;20262;-82
2023/05/10 01:37:40;;;;;;;0.10;0.10;;;14.00;99.90;;;;;;5071848;28;20194;-82
2023/05/10 01:40:24;;;;;;;0.10;0.10;;;14.00;99.90;;;;;;5071554;28;20175;-82
2023/05/10 01:42:55;;;;;;;0.10;0.10;;;13.90;99.90;;;;;;5072933;28;20831;-82
2023/05/10 01:45:47;;;;;;;0.10;0.10;;;13.90;99.90;;;;;;5072956;28;20194;-82
2023/05/10 01:48:14;;;;;;;0.10;0.10;;;13.90;99.90;;;;;;5071301;28;20556;-82
2023/05/10 01:50:43;;;;;;;0.10;0.10;;;13.90;99.90;;;;;;5068560;28;20202;-82
2023/05/10 01:53:11;;;;;;;0.10;0.10;;;14.00;99.90;;;;;;5071281;28;20211;-82
2023/05/10 01:55:45;;;;;;;0.10;0.10;;;14.00;99.90;;;;;;5070843;28;20194;-82
2023/05/10 01:58:16;;;;;;;0.10;0.10;;;14.10;99.90;;;;;;5072035;28;20721;-82
2023/05/10 02:00:47;;;;;;;0.10;0.10;;;14.10;99.90;;;;;;5072831;28;20231;-82
2023/05/10 02:03:14;;;;;;;0.10;0.10;;;14.10;99.90;;;;;;5072035;28;20238;-82
2023/05/10 02:05:44;;;;;;;0.10;0.10;;;14.10;99.90;;;;;;5088282;28;20294;-82
2023/05/10 02:08:10;;;;;;;0.10;0.10;;;14.20;99.90;;;;;;5075320;28;20206;-82
2023/05/10 02:10:37;;;;;;;0.10;0.10;;;14.20;99.90;;;;;;5071692;28;20215;-82
2023/05/10 02:13:05;;;;;;;0.10;0.10;;;14.20;99.90;;;;;;5073024;28;20222;-82
2023/05/10 02:15:32;;;;;;;0.10;0.10;;;14.20;99.90;;;;;;5072806;28;20224;-82
2023/05/10 02:17:59;;;;;;;0.10;0.10;;;14.20;99.90;;;;;;5070060;28;20186;-82
2023/05/10 02:20:26;;;;;;;0.10;0.10;;;14.20;99.90;;;;;;5067525;28;20208;-82
2023/05/10 02:22:55;;;;;;;0.10;0.10;;;14.20;99.90;;;;;;5073457;28;20198;-82
2023/05/10 02:25:23;;;;;;;0.10;0.10;;;14.20;99.90;;;;;;5073734;28;21247;-82
2023/05/10 02:27:49;;;;;;;0.10;0.10;;;14.20;99.90;;;;;;5075930;28;20193;-82
2023/05/10 02:30:16;;;;;;;0.10;0.10;;;14.20;99.90;;;;;;5075026;28;20196;-82
2023/05/10 02:32:42;;;;;;;0.10;0.10;;;14.20;99.90;;;;;;5075288;28;20337;-82
2023/05/10 02:35:10;;;;;;;0.10;0.10;;;14.20;99.90;;;;;;5076812;28;20535;-82
2023/05/10 02:37:38;;;;;;;0.10;0.10;;;14.20;99.90;;;;;;5074780;28;20222;-82
2023/05/10 02:40:06;;;;;;;0.10;0.10;;;14.20;99.90;;;;;;5076682;28;20180;-82
2023/05/10 02:42:35;;;;;;;0.10;0.10;;;14.20;99.90;;;;;;5075318;28;20274;-82
2023/05/10 02:45:04;;;;;;;0.10;0.10;;;14.20;99.90;;;;;;5074453;28;20534;-82
2023/05/10 02:47:31;;;;;;;0.10;0.10;;;14.20;99.90;;;;;;5076950;28;20664;-82
2023/05/10 02:49:56;;;;;;;0.10;0.10;;;14.20;99.90;;;;;;5074930;28;20186;-82
2023/05/10 02:52:27;;;;;;;0.10;0.10;;;14.20;99.90;;;;;;5080578;28;20212;-82
2023/05/10 02:54:58;;;;;;;0.10;0.10;;;14.10;99.90;;;;;;5078133;28;20207;-83
2023/05/10 02:57:28;;;;;;;0.10;0.10;;;14.00;99.90;;;;;;5077919;28;20191;-82
2023/05/10 02:59:54;;;;;;;0.10;0.10;;;13.90;99.90;;;;;;5076554;28;20223;-82
2023/05/10 03:02:20;;;;;;;0.10;0.10;;;14.00;99.90;;;;;;5077429;28;20209;-82
2023/05/10 03:04:46;;;;;;;0.10;0.10;;;14.10;99.90;;;;;;5077960;28;20195;-82
2023/05/10 03:07:12;;;;;;;0.10;0.10;;;14.30;99.90;;;;;;5074759;28;20275;-82
2023/05/10 03:09:37;;;;;;;0.10;0.10;;;14.40;99.90;;;;;;5077279;28;20555;-82
2023/05/10 03:12:23;;;;;;;0.10;0.10;;;14.40;99.90;;;;;;5075806;28;20239;-82
2023/05/10 03:15:07;;;;;;;0.10;0.10;;;14.40;99.90;;;;;;5076103;28;20180;-82
2023/05/10 03:17:59;;;;;;;0.10;0.10;;;14.30;99.90;;;;;;5077146;28;20180;-82
2023/05/10 03:20:49;;;;;;;0.10;0.10;;;14.40;99.90;;;;;;5076688;28;20252;-82
2023/05/10 03:23:18;;;;;;;0.10;0.10;;;14.50;99.90;;;;;;5073392;28;20194;-82
2023/05/10 03:25:45;;;;;;;0.10;0.10;;;14.50;99.90;;;;;;5075327;28;20204;-82
2023/05/10 03:28:12;;;;;;;0.10;0.10;;;14.40;99.90;;;;;;5075489;28;20498;-82
2023/05/10 03:30:38;;;;;;;0.10;0.10;;;14.50;99.90;;;;;;5074978;28;20739;-82
2023/05/10 03:33:07;;;;;;;0.10;0.10;;;14.50;99.90;;;;;;5075953;28;20211;-81
2023/05/10 03:35:32;;;;;;;0.10;0.10;;;14.50;99.90;;;;;;5074167;28;20179;-82
2023/05/10 03:37:58;;;;;;;0.10;0.10;;;14.50;99.90;;;;;;5076429;28;20528;-82
2023/05/10 03:40:25;;;;;;;0.10;0.10;;;14.50;99.90;;;;;;5077079;28;20297;-82
2023/05/10 03:42:51;;;;;;;0.10;0.10;;;14.40;99.90;;;;;;5073650;28;20668;-82
2023/05/10 03:45:16;;;;;;;0.10;0.10;;;14.50;99.90;;;;;;5075808;28;20193;-82
2023/05/10 03:47:42;;;;;;;0.10;0.10;;;14.60;99.90;;;;;;5074451;28;20187;-82
2023/05/10 03:50:08;;;;;;;0.10;0.10;;;14.60;99.90;;;;;;5074673;28;20634;-82
2023/05/10 03:52:33;;;;;;;0.10;0.10;;;14.70;99.90;;;;;;5075657;28;20219;-82
2023/05/10 03:54:59;;;;;;;0.10;0.10;;;14.70;99.90;;;;;;5075424;28;20203;-82
2023/05/10 03:57:24;;;;;;;0.10;0.10;;;14.70;99.90;;;;;;5076260;28;20276;-82
2023/05/10 03:59:50;;;;;;;0.10;0.10;;;14.70;99.90;;;;;;5078970;28;20195;-82
2023/05/10 04:02:15;;;;;;;0.10;0.10;;;14.70;99.90;;;;;;5074998;28;20314;-82
2023/05/10 04:04:41;;;;;;;0.10;0.10;;;14.70;99.90;;;;;;5074798;28;20213;-81
2023/05/10 04:07:07;;;;;;;0.10;0.10;;;14.70;99.90;;;;;;5076465;28;20251;-82
2023/05/10 04:09:32;;;;;;;0.10;0.10;;;14.60;99.90;;;;;;5072394;28;20192;-82
2023/05/10 04:12:00;;;;;;;0.10;0.10;;;14.50;99.90;;;;;;5070322;28;20220;-82
2023/05/10 04:14:25;;;;;;;0.10;0.10;;;14.50;99.90;;;;;;5072722;28;20176;-82
2023/05/10 04:16:51;;;;;;;0.10;0.10;;;14.50;99.90;;;;;;5073221;28;20191;-82
2023/05/10 04:19:16;;;;;;;0.10;0.10;;;14.40;99.90;;;;;;5074413;28;20186;-82
2023/05/10 04:21:42;;;;;;;0.10;0.10;;;14.50;99.90;;;;;;5076267;28;20614;-82
2023/05/10 04:24:07;;;;;;;0.10;0.10;;;14.50;99.90;;;;;;5073106;28;20184;-82
2023/05/10 04:26:33;;;;;;;0.10;0.10;;;14.50;99.90;;;;;;5074065;28;20213;-82
2023/05/10 04:28:58;;;;;;;0.10;0.10;;;14.50;99.90;;;;;;5075315;28;20201;-82
2023/05/10 04:31:24;;;;;;;0.10;0.10;;;14.50;99.90;;;;;;5073513;28;20210;-82
2023/05/10 04:33:49;;;;;;;0.10;0.10;;;14.40;99.90;;;;;;5074107;28;20550;-82
2023/05/10 04:36:15;;;;;;;0.10;0.10;;;14.50;99.90;;;;;;5071928;28;20191;-82
2023/05/10 04:38:41;;;;;;;0.10;0.10;;;14.60;99.90;;;;;;5074771;28;20203;-82
2023/05/10 04:41:08;;;;;;;0.10;0.10;;;14.50;99.90;;;;;;5071512;28;20204;-82
2023/05/10 04:43:35;;;;;;;0.10;0.10;;;14.60;99.90;;;;;;5072819;28;20687;-82
2023/05/10 04:46:00;;;;;;;0.10;0.10;;;14.60;99.90;;;;;;5070528;28;20188;-83
2023/05/10 04:48:26;;;;;;;0.10;0.10;;;14.60;99.90;;;;;;5072894;28;20187;-83
2023/05/10 04:50:52;;;;;;;0.10;0.10;;;14.70;99.90;;;;;;5071303;28;20207;-83
2023/05/10 04:53:17;;;;;;;0.10;0.10;;;14.60;99.90;;;;;;5072066;28;20243;-82
2023/05/10 04:55:43;;;;;;;0.10;0.10;;;14.60;99.90;;;;;;5074110;28;20199;-82
2023/05/10 04:58:08;;;;;;;0.10;0.10;;;14.50;99.90;;;;;;5071095;28;20273;-82
2023/05/10 05:00:34;;;;;;;0.10;0.10;;;14.60;99.90;;;;;;5072153;28;20259;-82
2023/05/10 05:02:59;;;;;;;0.10;0.10;;;14.60;99.90;;;;;;5072883;28;20840;-82
2023/05/10 05:05:25;;;;;;;0.10;0.10;;;14.60;99.90;;;;;;5072370;28;20212;-82
2023/05/10 05:07:50;;;;;;;0.10;0.10;;;14.60;99.90;;;;;;5072497;28;20177;-82
2023/05/10 05:10:16;;;;;;;0.10;0.10;;;14.60;99.90;;;;;;5076138;28;20187;-82
2023/05/10 05:12:42;;;;;;;0.10;0.10;;;14.60;99.90;;;;;;5073878;28;20214;-82
2023/05/10 05:15:09;;;;;;;0.10;0.10;;;14.60;99.90;;;;;;5075455;28;20198;-82
2023/05/10 05:17:35;;;;;;;0.10;0.10;;;14.50;99.90;;;;;;5071816;28;20191;-82
2023/05/10 05:20:00;;;;;;;0.10;0.10;;;14.50;99.90;;;;;;5073458;28;20302;-83
2023/05/10 05:22:29;;;;;;;0.10;0.10;;;14.40;99.90;;;;;;5070818;28;20257;-84
2023/05/10 05:24:55;;;;;;;0.10;0.10;;;14.40;99.90;;;;;;5069589;28;21141;-83
2023/05/10 05:27:23;;;;;;;0.10;0.10;;;14.40;99.90;;;;;;5070236;28;20211;-84
2023/05/10 05:29:52;;;;;;;0.10;0.10;;;14.50;99.90;;;;;;5073860;28;20246;-85
2023/05/10 05:32:18;;;;;;;0.10;0.10;;;14.50;99.90;;;;;;5079174;28;20240;-83
2023/05/10 05:34:47;;;;;;;0.10;0.10;;;14.50;99.90;;;;;;5080239;28;20183;-84
2023/05/10 05:37:14;;;;;;;0.10;0.10;;;14.60;99.90;;;;;;5078645;28;20186;-83
2023/05/10 05:39:40;;;;;;;0.10;0.10;;;14.60;99.90;;;;;;5073970;28;20195;-83
2023/05/10 05:42:06;;;;;;;0.10;0.10;;;14.70;99.90;;;;;;5073923;28;20213;-84
2023/05/10 05:44:32;;;;;;;0.10;0.10;;;14.60;99.90;;;;;;5086128;28;20201;-84
2023/05/10 05:46:58;;;;;;;0.10;0.10;;;14.70;99.90;;;;;;5077530;28;20282;-83
2023/05/10 05:49:23;;;;;;;0.10;0.10;;;14.60;99.90;;;;;;5076582;28;20274;-83
2023/05/10 05:51:50;;;;;;;0.10;0.10;;;14.70;99.90;;;;;;5075847;28;20215;-83
2023/05/10 05:54:15;;;;;;;0.10;0.10;;;14.70;99.90;;;;;;5074419;28;20190;-83
2023/05/10 05:56:41;;;;;;;0.10;0.10;;;14.80;99.90;;;;;;5073381;28;20191;-85
2023/05/10 05:59:06;;;;;;;0.10;0.10;;;14.90;99.90;;;;;;5076961;28;20188;-82
2023/05/10 06:01:32;;;;;;;0.10;0.10;;;14.90;99.90;;;;;;5076691;28;20196;-83
2023/05/10 06:03:57;;;;;;;0.10;0.10;;;14.80;99.90;;;;;;5077962;28;20793;-83
2023/05/10 06:06:23;;;;;;;0.10;0.10;;;14.80;99.90;;;;;;5078228;28;20187;-83
2023/05/10 06:08:48;;;;;;;0.10;0.10;;;14.80;99.90;;;;;;5076506;28;20188;-83
2023/05/10 06:11:14;;;;;;;0.10;0.10;;;14.80;99.90;;;;;;5078673;28;20220;-83
2023/05/10 06:13:40;;;;;;;0.10;0.10;;;14.80;99.90;;;;;;5079312;28;20639;-83
2023/05/10 06:16:05;;;;;;;0.10;0.10;;;14.90;99.90;;;;;;5075377;28;20278;-82
2023/05/10 06:18:31;;;;;;;0.10;0.10;;;15.00;99.90;;;;;;5074991;28;20184;-82
2023/05/10 06:20:57;;;;;;;0.10;0.10;;;15.20;99.90;;;;;;5076640;28;20213;-83
2023/05/10 06:23:23;;;;;;;0.10;0.10;;;15.40;99.90;;;;;;5078048;28;20274;-81
2023/05/10 06:25:48;;;;;;;0.10;0.10;;;15.50;99.90;;;;;;5074044;28;20191;-82
2023/05/10 06:28:14;;;;;;;0.10;0.10;;;15.70;99.90;;;;;;5074953;28;20299;-82
2023/05/10 06:30:39;;;;;;;0.10;0.10;;;15.90;99.90;;;;;;5074250;28;20208;-82
2023/05/10 06:33:05;;;;;;;0.10;0.10;;;16.10;99.90;;;;;;5076107;28;20192;-82
2023/05/10 06:35:32;;;;;;;0.10;0.10;;;16.20;99.90;;;;;;5075409;28;20571;-82
2023/05/10 06:37:57;;;;;;;0.10;0.10;;;16.50;99.90;;;;;;5079980;28;20268;-82
2023/05/10 06:40:23;;;;;;;0.10;0.10;;;16.60;99.90;;;;;;5077208;28;20268;-82
2023/05/10 06:42:49;;;;;;;0.10;0.10;;;16.80;99.90;;;;;;5080234;28;20198;-82
2023/05/10 06:45:16;;;;;;;0.10;0.10;;;16.60;99.90;;;;;;5076445;28;20188;-82
2023/05/10 06:47:41;;;;;;;0.10;0.10;;;16.80;99.90;;;;;;5075360;28;20192;-82
2023/05/10 06:50:08;;;;;;;0.10;0.10;;;16.70;99.90;;;;;;5075471;28;20200;-82
2023/05/10 06:52:34;;;;;;;0.10;0.10;;;16.50;99.90;;;;;;5074603;28;20265;-82
2023/05/10 06:55:00;;;;;;;0.10;0.10;;;16.50;99.90;;;;;;5073545;28;20189;-82
2023/05/10 06:57:25;;;;;;;0.10;0.10;;;16.50;99.90;;;;;;5074772;28;20561;-82
2023/05/10 06:59:51;;;;;;;0.10;0.10;;;16.40;99.90;;;;;;5075959;28;20189;-82
2023/05/10 07:02:17;;;;;;;0.10;0.10;;;16.30;99.90;;;;;;5072774;28;20201;-82
2023/05/10 07:04:43;;;;;;;0.10;0.10;;;16.40;99.90;;;;;;5070955;28;20230;-81
2023/05/10 07:07:08;;;;;;;0.10;0.10;;;16.70;99.90;;;;;;5074389;28;20215;-82
2023/05/10 07:09:34;;;;;;;0.10;0.10;;;16.80;99.90;;;;;;5073534;28;20275;-82
2023/05/10 07:12:01;;;;;;;0.10;0.10;;;16.80;99.90;;;;;;5072361;28;20296;-82
2023/05/10 07:14:27;;;;;;;0.10;0.10;;;16.90;99.90;;;;;;5074519;28;20169;-82
2023/05/10 07:16:53;;;;;;;0.10;0.10;;;17.10;99.90;;;;;;5071204;28;20200;-83
2023/05/10 07:19:19;;;;;;;0.10;0.10;;;17.10;99.90;;;;;;5071617;28;20580;-84
2023/05/10 07:21:45;;;;;;;0.10;0.10;;;17.40;99.90;;;;;;5071288;28;20204;-84
2023/05/10 07:24:10;;;;;;;0.10;0.10;;;17.50;99.90;;;;;;5075666;28;20207;-84
2023/05/10 07:26:36;;;;;;;0.10;0.10;;;17.40;99.90;;;;;;5074402;28;20676;-84
2023/05/10 07:29:02;;;;;;;0.10;0.10;;;17.40;99.90;;;;;;5073472;28;20320;-84
2023/05/10 07:31:27;;;;;;;0.10;0.10;;;17.40;99.90;;;;;;5073432;28;20208;-84
2023/05/10 07:33:53;;;;;;;0.10;0.10;;;17.60;99.90;;;;;;5073818;28;20188;-84
2023/05/10 07:36:18;;;;;;;0.10;0.10;;;17.50;99.90;;;;;;5074672;28;20200;-84
2023/05/10 07:38:44;;;;;;;0.10;0.10;;;17.50;99.90;;;;;;5075043;28;20185;-84
2023/05/10 07:41:11;;;;;;;0.10;0.10;;;17.60;99.90;;;;;;5075810;28;20201;-84
2023/05/10 07:43:36;;;;;;;0.10;0.10;;;17.70;99.90;;;;;;5074431;28;20180;-84
2023/05/10 07:46:02;;;;;;;0.10;0.10;;;17.70;99.90;;;;;;5073028;28;20704;-84
2023/05/10 07:48:27;;;;;;;0.10;0.10;;;17.60;99.90;;;;;;5073657;28;20177;-85
2023/05/10 07:50:53;;;;;;;0.10;0.10;;;17.60;99.90;;;;;;5072328;28;20217;-84
2023/05/10 07:53:18;;;;;;;0.10;0.10;;;17.60;99.90;;;;;;5072823;28;20204;-84
2023/05/10 07:55:44;;;;;;;0.10;0.10;;;17.40;99.90;;;;;;5073684;28;20527;-84
2023/05/10 07:58:10;;;;;;;0.10;0.10;;;17.30;99.90;;;;;;5073554;28;20222;-84
2023/05/10 08:00:39;;;;;;;0.10;0.10;;;17.30;99.90;;;;;;5073211;28;20237;-84
2023/05/10 08:03:04;;;;;;;0.10;0.10;;;17.20;99.90;;;;;;5072998;28;20200;-84
2023/05/10 08:05:30;;;;;;;0.10;0.10;;;17.10;99.90;;;;;;5070568;28;20676;-84
2023/05/10 08:07:55;;;;;;;0.10;0.10;;;17.10;99.90;;;;;;5072546;28;20184;-84
2023/05/10 08:10:21;;;;;;;0.10;0.10;;;17.00;99.90;;;;;;5073210;28;20707;-84
2023/05/10 08:12:46;;;;;;;0.10;0.10;;;17.00;99.90;;;;;;5073511;28;20204;-84
2023/05/10 08:15:12;;;;;;;0.10;0.10;;;17.00;99.90;;;;;;5071048;28;20186;-83
2023/05/10 08:17:37;;;;;;;0.10;0.10;;;17.00;99.90;;;;;;5072071;28;20183;-84
2023/05/10 08:20:03;;;;;;;0.10;0.10;;;17.00;99.90;;;;;;5072589;28;20184;-84
2023/05/10 08:22:28;;;;;;;0.10;0.10;;;17.10;99.90;;;;;;5072997;28;20693;-84
2023/05/10 08:24:54;;;;;;;0.10;0.10;;;17.10;99.90;;;;;;5071035;28;20188;-84
2023/05/10 08:27:19;;;;;;;0.10;0.10;;;17.30;99.90;;;;;;5069743;28;20203;-84
2023/05/10 08:29:45;;;;;;;0.10;0.10;;;17.50;99.90;;;;;;5067092;28;20263;-83
2023/05/10 08:32:10;;;;;;;0.10;0.10;;;17.90;99.90;;;;;;5068832;28;20208;-82
2023/05/10 08:34:36;;;;;;;0.10;0.10;;;18.30;99.90;;;;;;5071877;28;20700;-83
2023/05/10 08:37:01;;;;;;;0.10;0.10;;;18.50;99.90;;;;;;5077678;28;20181;-82
2023/05/10 08:39:27;;;;;;;0.10;0.10;;;18.50;99.90;;;;;;5075103;28;20189;-83
2023/05/10 08:41:55;;;;;;;0.10;0.10;;;18.80;99.90;;;;;;5075488;28;21146;-82
2023/05/10 08:44:21;;;;;;;0.10;0.10;;;18.80;99.90;;;;;;5092963;28;20217;-83
2023/05/10 08:46:50;;;;;;;0.10;0.10;;;19.00;99.90;;;;;;5075470;28;20214;-82
2023/05/10 08:49:20;;;;;;;0.10;0.10;;;18.80;99.90;;;;;;5076190;28;20202;-84
2023/05/10 08:51:54;;;;;;;0.10;0.10;;;18.80;99.90;;;;;;5078171;28;20262;-83
2023/05/10 08:54:21;;;;;;;0.10;0.10;;;18.80;99.90;;;;;;5076883;28;20259;-82
2023/05/10 08:56:47;;;;;;;0.10;0.10;;;18.30;99.90;;;;;;5070565;28;20187;-82
2023/05/10 08:59:13;;;;;;;0.10;0.10;;;17.80;99.90;;;;;;5071347;28;20185;-82
2023/05/10 09:01:40;;;;;;;0.10;0.10;;;17.40;99.90;;;;;;5068398;28;20209;-83
2023/05/10 09:04:05;;;;;;;0.10;0.10;;;17.20;99.90;;;;;;5070372;28;20193;-82
2023/05/10 09:06:32;;;;;;;0.10;0.10;;;17.20;99.90;;;;;;5071475;28;20241;-83
2023/05/10 09:08:58;;;;;;;0.10;0.10;;;17.20;99.90;;;;;;5071186;28;20185;-82
2023/05/10 09:11:24;;;;;;;0.10;0.10;;;17.40;99.90;;;;;;5079972;28;20201;-82
2023/05/10 09:13:51;;;;;;;0.10;0.10;;;17.60;99.90;;;;;;5074188;28;20195;-82
2023/05/10 09:16:16;;;;;;;0.10;0.10;;;18.00;99.90;;;;;;5074825;28;20271;-81
2023/05/10 09:18:42;;;;;;;0.10;0.10;;;18.30;99.90;;;;;;5074624;28;20219;-82
2023/05/10 09:21:09;;;;;;;0.10;0.10;;;18.70;99.90;;;;;;5072734;28;20224;-82
2023/05/10 09:23:35;;;;;;;0.10;0.10;;;18.90;99.90;;;;;;5078245;28;20189;-82
2023/05/10 09:26:05;;;;;;;0.10;0.10;;;19.30;99.90;;;;;;5072001;28;20224;-82
2023/05/10 09:28:49;;;;;;;0.10;0.10;;;19.60;99.90;;;;;;5073213;28;20198;-82
2023/05/10 09:31:15;;;;;;;0.10;0.10;;;19.80;99.90;;;;;;5073254;28;20215;-82
2023/05/10 09:33:45;;;;;;;0.10;0.10;;;19.90;99.90;;;;;;5074865;28;20209;-83
2023/05/10 09:36:11;;;;;;;0.10;0.10;;;19.80;99.90;;;;;;5071649;28;20204;-82
2023/05/10 09:38:53;;;;;;;0.10;0.10;;;19.10;99.90;;;;;;5073265;28;21194;-82
2023/05/10 09:41:23;;;;;;;0.10;0.10;;;18.40;99.90;;;;;;5070109;28;20208;-82
2023/05/10 09:43:49;;;;;;;0.10;0.10;;;17.60;99.90;;;;;;5069067;28;20188;-82
2023/05/10 09:46:16;;;;;;;0.10;0.10;;;17.00;99.90;;;;;;5072245;28;20241;-82
2023/05/10 09:48:46;;;;;;;0.10;0.10;;;16.80;99.90;;;;;;5070463;28;20188;-82
2023/05/10 09:51:26;;;;;;;0.10;0.10;;;16.60;99.90;;;;;;5067482;28;20200;-82
2023/05/10 09:54:12;;;;;;;0.10;0.10;;;16.50;99.90;;;;;;5070893;28;20721;-81
2023/05/10 09:56:40;;;;;;;0.10;0.10;;;16.70;99.90;;;;;;5075824;28;20195;-82
2023/05/10 09:59:07;;;;;;;0.10;0.10;;;16.70;99.90;;;;;;5069923;28;20582;-82
2023/05/10 10:01:34;;;;;;;0.10;0.10;;;17.00;99.90;;;;;;5072669;28;20790;-82
2023/05/10 10:04:03;;;;;;;0.10;0.10;;;17.50;99.90;;;;;;5073877;28;20297;-82
2023/05/10 10:06:29;;;;;;;0.10;0.10;;;17.80;99.90;;;;;;5074585;28;20176;-81
2023/05/10 10:08:55;;;;;;;0.10;0.10;;;18.20;99.90;;;;;;5064154;28;20184;-81
2023/05/10 10:11:21;;;;;;;0.10;0.10;;;18.50;99.90;;;;;;5069321;28;20200;-82
2023/05/10 10:13:47;;;;;;;0.10;0.10;;;19.00;99.90;;;;;;5066637;28;20285;-82
2023/05/10 10:16:13;;;;;;;0.10;0.10;;;19.30;99.90;;;;;;5068910;28;20184;-83
2023/05/10 10:18:39;;;;;;;0.10;0.10;;;19.40;99.90;;;;;;5068274;28;20231;-82
2023/05/10 10:21:10;;;;;;;0.10;0.10;;;19.30;99.90;;;;;;5074123;28;20224;-82
2023/05/10 10:23:36;;;;;;;0.10;0.10;;;19.30;99.90;;;;;;5068784;28;20188;-82
2023/05/10 10:26:04;;;;;;;0.10;0.10;;;19.40;99.90;;;;;;5067542;28;20189;-82
2023/05/10 10:28:39;;;;;;;0.10;0.10;;;19.30;99.90;;;;;;5069085;28;20196;-82
2023/05/10 10:31:18;;;;;;;0.10;0.10;;;19.40;99.90;;;;;;5072339;28;20630;-81
2023/05/10 10:34:07;;;;;;;0.10;0.10;;;19.50;99.90;;;;;;5070034;28;20304;-82
2023/05/10 10:36:40;;;;;;;0.10;0.10;;;19.40;99.90;;;;;;5068462;28;20187;-81
2023/05/10 10:39:09;;;;;;;0.10;0.10;;;19.10;99.90;;;;;;5073151;28;20178;-82
2023/05/10 10:41:37;;;;;;;0.10;0.10;;;19.00;99.90;;;;;;5065341;28;20204;-82
2023/05/10 10:44:22;;;;;;;0.10;0.10;;;19.00;99.90;;;;;;5070021;28;20262;-82
2023/05/10 10:47:12;;;;;;;0.10;0.10;;;19.20;99.90;;;;;;5073142;28;20187;-82
2023/05/10 10:49:42;;;;;;;0.10;0.10;;;19.30;99.90;;;;;;5069444;28;20198;-82
2023/05/10 10:52:35;;;;;;;0.10;0.10;;;19.50;99.90;;;;;;5072453;28;20216;-82
2023/05/10 10:55:09;;;;;;;0.10;0.10;;;19.90;99.90;;;;;;5064728;28;20229;-82
2023/05/10 10:57:44;;;;;;;0.10;0.10;;;19.80;99.90;;;;;;5073874;28;20183;-82
2023/05/10 11:00:19;;;;;;;0.10;0.10;;;19.90;99.90;;;;;;5074579;28;20455;-82
2023/05/10 11:02:49;;;;;;;0.10;0.10;;;19.70;99.90;;;;;;5075024;28;20238;-82
2023/05/10 11:05:40;;;;;;;0.10;0.10;;;19.70;99.90;;;;;;5074656;28;20636;-82
2023/05/10 11:08:13;;;;;;;0.10;0.10;;;19.80;99.90;;;;;;5072363;28;20181;-82
2023/05/10 11:10:48;;;;;;;0.10;0.10;;;19.90;99.90;;;;;;5076528;28;20211;-83
2023/05/10 11:13:14;;;;;;;0.10;0.10;;;19.90;99.90;;;;;;5076406;28;20886;-82
2023/05/10 11:15:47;;;;;;;0.10;0.10;;;20.10;99.90;;;;;;5071961;28;20216;-82
2023/05/10 11:18:21;;;;;;;0.10;0.10;;;20.20;99.90;;;;;;5077492;28;20745;-82
2023/05/10 11:21:15;;;;;;;0.10;0.10;;;20.40;99.90;;;;;;5071219;28;20210;-83
2023/05/10 11:23:43;;;;;;;0.10;0.10;;;20.40;99.90;;;;;;5070018;28;20196;-83
2023/05/10 11:26:09;;;;;;;0.10;0.10;;;20.30;99.90;;;;;;5074949;28;20257;-82
2023/05/10 11:28:42;;;;;;;0.10;0.10;;;20.20;99.90;;;;;;5073048;28;20185;-82
2023/05/10 11:31:07;;;;;;;0.10;0.10;;;20.30;99.90;;;;;;5074006;28;20200;-83
2023/05/10 11:33:46;;;;;;;0.10;0.10;;;20.00;99.90;;;;;;5074778;28;20216;-83
2023/05/10 11:36:23;;;;;;;0.10;0.10;;;19.60;99.90;;;;;;5074207;28;20248;-82
2023/05/10 11:38:49;;;;;;;0.10;0.10;;;19.60;99.90;;;;;;5074900;28;20181;-83
2023/05/10 11:41:17;;;;;;;0.10;0.10;;;20.00;99.90;;;;;;5071276;28;20670;-83
2023/05/10 11:43:45;;;;;;;0.10;0.10;;;20.00;99.90;;;;;;5075416;28;20272;-82
2023/05/10 11:46:12;;;;;;;0.10;0.10;;;20.20;99.90;;;;;;5070991;28;20185;-83
2023/05/10 11:48:39;;;;;;;0.10;0.10;;;20.40;99.90;;;;;;5073143;28;20176;-82
2023/05/10 11:51:07;;;;;;;0.10;0.10;;;20.50;99.90;;;;;;5069012;28;20327;-83
2023/05/10 11:53:33;;;;;;;0.10;0.10;;;20.80;99.90;;;;;;5068495;28;20240;-83
2023/05/10 11:56:10;;;;;;;0.10;0.10;;;21.10;99.90;;;;;;5066665;28;20183;-83
2023/05/10 11:58:38;;;;;;;0.10;0.10;;;21.20;99.90;;;;;;5071437;28;20184;-83
2023/05/10 12:01:05;;;;;;;0.10;0.10;;;21.20;99.90;;;;;;5070447;28;20623;-83
2023/05/10 12:03:31;;;;;;;0.10;0.10;;;21.50;99.90;;;;;;5070611;28;20216;-83
2023/05/10 12:05:58;;;;;;;0.10;0.10;;;21.40;99.90;;;;;;5071838;28;20188;-83
2023/05/10 12:08:25;;;;;;;0.10;0.10;;;21.50;99.90;;;;;;5071617;28;20180;-85
2023/05/10 12:10:51;;;;;;;0.10;0.10;;;21.70;99.90;;;;;;5072101;28;20214;-83
2023/05/10 12:13:18;;;;;;;0.10;0.10;;;21.60;99.90;;;;;;5074627;28;20211;-83
2023/05/10 12:15:44;;;;;;;0.10;0.10;;;21.40;99.90;;;;;;5070853;28;20742;-85
2023/05/10 12:18:11;;;;;;;0.10;0.10;;;21.10;99.90;;;;;;5071685;28;20279;-86
2023/05/10 12:20:37;;;;;;;0.10;0.10;;;20.70;99.90;;;;;;5074264;28;20203;-82
2023/05/10 12:23:03;;;;;;;0.10;0.10;;;20.70;99.90;;;;;;5073077;28;20185;-82
2023/05/10 12:25:39;;;;;;;0.10;0.10;;;20.50;99.90;;;;;;5070618;28;20184;-82
2023/05/10 12:28:08;;;;;;;0.10;0.10;;;20.30;99.90;;;;;;5073916;28;20188;-83
2023/05/10 12:30:35;;;;;;;0.10;0.10;;;20.40;99.90;;;;;;5072896;28;20216;-82
2023/05/10 12:33:21;;;;;;;0.10;0.10;;;20.50;99.90;;;;;;5073261;28;20200;-83
2023/05/10 12:35:52;;;;;;;0.10;0.10;;;20.80;99.90;;;;;;5073287;28;20247;-82
2023/05/10 12:38:34;;;;;;;0.10;0.10;;;20.70;99.90;;;;;;5071759;28;20177;-82
2023/05/10 12:41:00;;;;;;;0.07;0.07;;;20.40;99.90;;;;;;5071867;28;20197;-83
2023/05/10 12:43:26;;;;;;;0.10;0.10;;;20.10;99.90;;;;;;5071800;28;20177;-83
2023/05/10 12:45:52;;;;;;;0.10;0.10;;;20.10;99.90;;;;;;5070932;28;20310;-83
2023/05/10 12:48:18;;;;;;;0.10;0.10;;;20.10;99.90;;;;;;5069514;28;20193;-83
2023/05/10 12:50:43;;;;;;;0.10;0.10;;;20.10;99.90;;;;;;5071432;28;20205;-82
2023/05/10 12:53:09;;;;;;;0.10;0.10;;;20.20;99.90;;;;;;5073978;28;20213;-82